Terminal Aerodrome Forecast
Issued by NWS Key West, FL

Home | Current Version | Previous Version | Text Only | Print | Product List | Glossary On
Versions: 1 2 3 4 5 6 7 8 9 10 11 12 13 14 15 16 17 18 19 20 21 22 23 24 25 26 27 28 29 30 31 32 33 34 35 36 37 38 39 40 41 42 43 44 45 46 47 48 49 50
000
FTUS42 KKEY 301347 CCA
TAFEYW
TAF COR
KEYW 301347Z 3014/3112 16014G22KT P6SM VCTS SCT018CB SCT025 BKN035
      TEMPO 3014/3015 16018G28KT 1SM TSRA BKN017CB BKN025
     FM302300 18014G20KT P6SM VCSH SCT020 BKN050=

USA.gov is the U.S. government's official web portal to all federal, state and local government web resources and services.